sensor_id;sensor_type;location;lat;lon;timestamp;pressure;altitude;pressure_sealevel;temperature;humidity
6514;BME280;3290;47.716;9.070;2023-04-04T00:01:02;97421.25;;;3.74;60.71
6514;BME280;3290;47.716;9.070;2023-04-04T00:03:27;97421.75;;;3.86;60.43
6514;BME280;3290;47.716;9.070;2023-04-04T00:05:52;97424.81;;;3.73;61.42
6514;BME280;3290;47.716;9.070;2023-04-04T00:08:18;97420.75;;;3.71;61.57
6514;BME280;3290;47.716;9.070;2023-04-04T00:10:43;97427.72;;;3.62;61.19
6514;BME280;3290;47.716;9.070;2023-04-04T00:13:08;97418.00;;;3.64;61.04
6514;BME280;3290;47.716;9.070;2023-04-04T00:15:34;97418.97;;;3.56;61.72
6514;BME280;3290;47.716;9.070;2023-04-04T00:18:01;97413.66;;;3.81;61.36
6514;BME280;3290;47.716;9.070;2023-04-04T00:20:28;97408.63;;;3.56;61.27
6514;BME280;3290;47.716;9.070;2023-04-04T00:22:54;97407.28;;;3.44;61.55
6514;BME280;3290;47.716;9.070;2023-04-04T00:25:19;97408.63;;;3.63;61.54
6514;BME280;3290;47.716;9.070;2023-04-04T00:27:44;97416.03;;;3.58;62.01
6514;BME280;3290;47.716;9.070;2023-04-04T00:30:11;97406.50;;;3.51;61.59
6514;BME280;3290;47.716;9.070;2023-04-04T00:32:37;97410.09;;;3.66;61.16
6514;BME280;3290;47.716;9.070;2023-04-04T00:35:02;97406.66;;;3.58;61.33
6514;BME280;3290;47.716;9.070;2023-04-04T00:37:28;97416.72;;;3.68;60.95
6514;BME280;3290;47.716;9.070;2023-04-04T00:39:53;97411.19;;;3.63;60.93
6514;BME280;3290;47.716;9.070;2023-04-04T00:42:18;97415.56;;;3.47;61.09
6514;BME280;3290;47.716;9.070;2023-04-04T00:44:44;97412.63;;;3.42;60.91
6514;BME280;3290;47.716;9.070;2023-04-04T00:47:10;97407.94;;;3.46;60.65
6514;BME280;3290;47.716;9.070;2023-04-04T00:49:35;97407.63;;;3.49;61.03
6514;BME280;3290;47.716;9.070;2023-04-04T00:52:01;97409.03;;;3.35;60.94
6514;BME280;3290;47.716;9.070;2023-04-04T00:54:28;97402.09;;;3.52;60.39
6514;BME280;3290;47.716;9.070;2023-04-04T00:56:54;97404.69;;;3.52;60.50
6514;BME280;3290;47.716;9.070;2023-04-04T00:59:24;97406.16;;;3.38;61.12
6514;BME280;3290;47.716;9.070;2023-04-04T01:01:51;97398.53;;;3.45;60.46
6514;BME280;3290;47.716;9.070;2023-04-04T01:04:17;97395.94;;;3.37;60.27
6514;BME280;3290;47.716;9.070;2023-04-04T01:06:42;97396.94;;;3.44;60.82
6514;BME280;3290;47.716;9.070;2023-04-04T01:09:08;97397.88;;;3.43;60.56
6514;BME280;3290;47.716;9.070;2023-04-04T01:11:34;97396.25;;;3.26;60.67
6514;BME280;3290;47.716;9.070;2023-04-04T01:13:59;97389.13;;;3.28;61.18
6514;BME280;3290;47.716;9.070;2023-04-04T01:16:25;97398.69;;;3.27;61.00
6514;BME280;3290;47.716;9.070;2023-04-04T01:18:52;97390.69;;;3.13;60.70
6514;BME280;3290;47.716;9.070;2023-04-04T01:21:19;97393.84;;;3.40;60.15
6514;BME280;3290;47.716;9.070;2023-04-04T01:26:20;97391.72;;;3.28;60.31
6514;BME280;3290;47.716;9.070;2023-04-04T01:28:46;97403.03;;;3.27;60.68
6514;BME280;3290;47.716;9.070;2023-04-04T01:31:13;97398.78;;;3.18;61.30
6514;BME280;3290;47.716;9.070;2023-04-04T01:33:45;97407.41;;;3.18;60.54
6514;BME280;3290;47.716;9.070;2023-04-04T01:36:39;97403.97;;;3.18;60.63
6514;BME280;3290;47.716;9.070;2023-04-04T01:41:55;97407.13;;;3.45;59.73
6514;BME280;3290;47.716;9.070;2023-04-04T01:44:20;97398.34;;;3.30;59.81
6514;BME280;3290;47.716;9.070;2023-04-04T01:46:54;97394.69;;;3.57;58.90
6514;BME280;3290;47.716;9.070;2023-04-04T01:49:23;97407.41;;;3.26;60.33
6514;BME280;3290;47.716;9.070;2023-04-04T01:51:51;97407.22;;;3.20;60.01
6514;BME280;3290;47.716;9.070;2023-04-04T01:54:16;97404.16;;;3.32;60.26
6514;BME280;3290;47.716;9.070;2023-04-04T01:56:43;97398.06;;;3.41;59.31
6514;BME280;3290;47.716;9.070;2023-04-04T01:59:10;97404.03;;;3.34;59.33
6514;BME280;3290;47.716;9.070;2023-04-04T02:01:35;97409.22;;;3.50;59.47
6514;BME280;3290;47.716;9.070;2023-04-04T02:04:01;97401.09;;;3.29;60.02
6514;BME280;3290;47.716;9.070;2023-04-04T02:06:27;97405.13;;;3.16;60.49
6514;BME280;3290;47.716;9.070;2023-04-04T02:08:52;97397.53;;;3.30;59.73
6514;BME280;3290;47.716;9.070;2023-04-04T02:11:17;97399.13;;;3.15;59.99
6514;BME280;3290;47.716;9.070;2023-04-04T02:13:46;97399.63;;;3.18;60.46
6514;BME280;3290;47.716;9.070;2023-04-04T02:16:11;97405.94;;;3.24;60.14
6514;BME280;3290;47.716;9.070;2023-04-04T02:18:37;97399.75;;;3.09;60.32
6514;BME280;3290;47.716;9.070;2023-04-04T02:21:03;97388.09;;;3.05;60.50
6514;BME280;3290;47.716;9.070;2023-04-04T02:23:28;97393.91;;;2.99;60.72
6514;BME280;3290;47.716;9.070;2023-04-04T02:25:53;97384.75;;;2.79;60.57
6514;BME280;3290;47.716;9.070;2023-04-04T02:28:19;97396.75;;;2.88;61.13
6514;BME280;3290;47.716;9.070;2023-04-04T02:30:44;97389.63;;;2.82;60.51
6514;BME280;3290;47.716;9.070;2023-04-04T02:33:10;97385.16;;;2.92;61.08
6514;BME280;3290;47.716;9.070;2023-04-04T02:35:36;97388.41;;;3.02;60.96
6514;BME280;3290;47.716;9.070;2023-04-04T02:38:01;97389.09;;;3.20;60.51
6514;BME280;3290;47.716;9.070;2023-04-04T02:40:26;97388.59;;;3.17;59.71
6514;BME280;3290;47.716;9.070;2023-04-04T02:42:52;97386.53;;;3.28;59.95
6514;BME280;3290;47.716;9.070;2023-04-04T02:45:17;97389.22;;;3.03;60.07
6514;BME280;3290;47.716;9.070;2023-04-04T02:47:49;97386.84;;;3.17;59.91
6514;BME280;3290;47.716;9.070;2023-04-04T02:50:14;97385.31;;;2.99;60.59
6514;BME280;3290;47.716;9.070;2023-04-04T02:52:40;97381.31;;;3.20;59.88
6514;BME280;3290;47.716;9.070;2023-04-04T02:55:06;97384.53;;;2.65;61.36
6514;BME280;3290;47.716;9.070;2023-04-04T02:57:32;97380.72;;;2.85;61.11
6514;BME280;3290;47.716;9.070;2023-04-04T02:59:58;97381.94;;;3.06;60.18
6514;BME280;3290;47.716;9.070;2023-04-04T03:02:23;97389.41;;;3.09;60.01
6514;BME280;3290;47.716;9.070;2023-04-04T03:04:49;97388.22;;;2.96;60.94
6514;BME280;3290;47.716;9.070;2023-04-04T03:07:14;97386.81;;;3.09;60.45
6514;BME280;3290;47.716;9.070;2023-04-04T03:09:40;97384.66;;;2.97;60.49
6514;BME280;3290;47.716;9.070;2023-04-04T03:12:09;97391.63;;;3.04;61.56
6514;BME280;3290;47.716;9.070;2023-04-04T03:14:35;97396.09;;;2.86;61.60
6514;BME280;3290;47.716;9.070;2023-04-04T03:17:00;97386.06;;;2.83;62.06
6514;BME280;3290;47.716;9.070;2023-04-04T03:19:25;97378.91;;;2.70;62.58
6514;BME280;3290;47.716;9.070;2023-04-04T03:21:51;97383.59;;;2.74;62.85
6514;BME280;3290;47.716;9.070;2023-04-04T03:24:16;97381.38;;;2.79;61.90
6514;BME280;3290;47.716;9.070;2023-04-04T03:26:41;97381.31;;;2.71;62.11
6514;BME280;3290;47.716;9.070;2023-04-04T03:29:07;97385.31;;;2.58;61.86
6514;BME280;3290;47.716;9.070;2023-04-04T03:31:32;97380.94;;;2.91;61.00
6514;BME280;3290;47.716;9.070;2023-04-04T03:33:58;97379.69;;;3.11;61.97
6514;BME280;3290;47.716;9.070;2023-04-04T03:36:25;97379.78;;;2.53;62.31
6514;BME280;3290;47.716;9.070;2023-04-04T03:38:50;97376.13;;;2.63;63.36
6514;BME280;3290;47.716;9.070;2023-04-04T03:41:16;97374.88;;;2.75;63.37
6514;BME280;3290;47.716;9.070;2023-04-04T03:43:41;97365.69;;;2.80;62.61
6514;BME280;3290;47.716;9.070;2023-04-04T03:46:06;97373.47;;;2.88;62.19
6514;BME280;3290;47.716;9.070;2023-04-04T03:48:33;97375.50;;;2.69;63.20
6514;BME280;3290;47.716;9.070;2023-04-04T03:50:58;97373.59;;;2.79;62.54
6514;BME280;3290;47.716;9.070;2023-04-04T03:53:25;97369.81;;;2.58;63.14
6514;BME280;3290;47.716;9.070;2023-04-04T03:55:51;97376.03;;;2.80;62.89
6514;BME280;3290;47.716;9.070;2023-04-04T03:58:16;97376.00;;;2.73;62.49
6514;BME280;3290;47.716;9.070;2023-04-04T04:00:42;97380.81;;;2.09;65.22
6514;BME280;3290;47.716;9.070;2023-04-04T04:03:07;97387.75;;;2.34;65.37
6514;BME280;3290;47.716;9.070;2023-04-04T04:05:33;97383.66;;;2.49;63.68
6514;BME280;3290;47.716;9.070;2023-04-04T04:07:58;97382.81;;;2.48;63.56
6514;BME280;3290;47.716;9.070;2023-04-04T04:10:23;97391.25;;;2.25;65.11
6514;BME280;3290;47.716;9.070;2023-04-04T04:12:49;97389.31;;;2.27;65.14
6514;BME280;3290;47.716;9.070;2023-04-04T04:15:14;97387.16;;;2.15;65.28
6514;BME280;3290;47.716;9.070;2023-04-04T04:17:40;97386.84;;;2.18;65.88
6514;BME280;3290;47.716;9.070;2023-04-04T04:20:07;97380.72;;;2.19;65.52
6514;BME280;3290;47.716;9.070;2023-04-04T04:22:33;97385.72;;;2.20;65.31
6514;BME280;3290;47.716;9.070;2023-04-04T04:24:59;97388.94;;;2.14;65.70
6514;BME280;3290;47.716;9.070;2023-04-04T04:27:24;97396.03;;;2.12;65.79
6514;BME280;3290;47.716;9.070;2023-04-04T04:29:50;97394.16;;;2.22;66.40
6514;BME280;3290;47.716;9.070;2023-04-04T04:32:16;97395.00;;;2.31;65.16
6514;BME280;3290;47.716;9.070;2023-04-04T04:34:41;97396.22;;;2.44;65.80
6514;BME280;3290;47.716;9.070;2023-04-04T04:37:07;97393.78;;;2.42;65.11
6514;BME280;3290;47.716;9.070;2023-04-04T04:39:32;97408.91;;;2.30;64.89
6514;BME280;3290;47.716;9.070;2023-04-04T04:41:58;97403.41;;;2.07;66.63
6514;BME280;3290;47.716;9.070;2023-04-04T04:44:23;97398.03;;;2.77;63.61
6514;BME280;3290;47.716;9.070;2023-04-04T04:46:49;97405.00;;;2.59;64.20
6514;BME280;3290;47.716;9.070;2023-04-04T04:49:14;97414.06;;;2.30;65.02
6514;BME280;3290;47.716;9.070;2023-04-04T04:51:40;97412.94;;;2.32;66.17
6514;BME280;3290;47.716;9.070;2023-04-04T04:54:07;97421.06;;;2.12;65.79
6514;BME280;3290;47.716;9.070;2023-04-04T04:56:32;97421.78;;;2.04;65.86
6514;BME280;3290;47.716;9.070;2023-04-04T04:58:57;97424.41;;;2.30;66.30
6514;BME280;3290;47.716;9.070;2023-04-04T05:01:23;97419.03;;;2.23;66.14
6514;BME280;3290;47.716;9.070;2023-04-04T05:03:48;97422.41;;;1.81;67.28
6514;BME280;3290;47.716;9.070;2023-04-04T05:06:13;97427.31;;;2.09;66.34
6514;BME280;3290;47.716;9.070;2023-04-04T05:08:39;97427.78;;;1.88;67.69
6514;BME280;3290;47.716;9.070;2023-04-04T05:11:04;97429.22;;;1.82;67.52
6514;BME280;3290;47.716;9.070;2023-04-04T05:13:30;97416.56;;;1.97;66.67
6514;BME280;3290;47.716;9.070;2023-04-04T05:15:55;97425.66;;;1.83;67.91
6514;BME280;3290;47.716;9.070;2023-04-04T05:18:20;97426.91;;;1.97;67.50
6514;BME280;3290;47.716;9.070;2023-04-04T05:20:51;97425.63;;;2.00;67.34
6514;BME280;3290;47.716;9.070;2023-04-04T05:23:17;97419.72;;;1.91;68.22
6514;BME280;3290;47.716;9.070;2023-04-04T05:25:42;97425.22;;;1.88;67.48
6514;BME280;3290;47.716;9.070;2023-04-04T05:28:08;97426.13;;;2.21;67.22
6514;BME280;3290;47.716;9.070;2023-04-04T05:30:33;97428.75;;;2.29;66.62
6514;BME280;3290;47.716;9.070;2023-04-04T05:32:58;97427.13;;;2.28;66.88
6514;BME280;3290;47.716;9.070;2023-04-04T05:35:24;97426.63;;;2.25;67.36
6514;BME280;3290;47.716;9.070;2023-04-04T05:37:50;97426.63;;;2.50;66.79
6514;BME280;3290;47.716;9.070;2023-04-04T05:40:15;97435.66;;;2.21;66.58
6514;BME280;3290;47.716;9.070;2023-04-04T05:42:40;97419.94;;;2.39;66.12
6514;BME280;3290;47.716;9.070;2023-04-04T05:45:07;97431.78;;;2.25;66.61
6514;BME280;3290;47.716;9.070;2023-04-04T05:47:32;97437.97;;;2.57;65.74
6514;BME280;3290;47.716;9.070;2023-04-04T05:49:58;97434.69;;;2.47;65.78
6514;BME280;3290;47.716;9.070;2023-04-04T05:52:23;97446.41;;;2.34;65.73
6514;BME280;3290;47.716;9.070;2023-04-04T05:54:49;97445.16;;;2.71;65.60
6514;BME280;3290;47.716;9.070;2023-04-04T05:57:15;97449.13;;;2.82;64.32
6514;BME280;3290;47.716;9.070;2023-04-04T05:59:41;97444.75;;;2.83;64.53
6514;BME280;3290;47.716;9.070;2023-04-04T06:02:06;97443.50;;;3.36;63.90
6514;BME280;3290;47.716;9.070;2023-04-04T06:04:32;97439.03;;;3.61;61.39
6514;BME280;3290;47.716;9.070;2023-04-04T06:06:58;97440.38;;;3.97;61.28
6514;BME280;3290;47.716;9.070;2023-04-04T06:09:23;97444.41;;;3.68;61.73
6514;BME280;3290;47.716;9.070;2023-04-04T06:11:48;97443.75;;;3.74;61.06
6514;BME280;3290;47.716;9.070;2023-04-04T06:14:14;97443.00;;;4.21;60.35
6514;BME280;3290;47.716;9.070;2023-04-04T06:16:39;97450.16;;;3.46;61.07
6514;BME280;3290;47.716;9.070;2023-04-04T06:19:05;97446.19;;;3.11;62.00
6514;BME280;3290;47.716;9.070;2023-04-04T06:21:30;97450.09;;;3.95;60.67
6514;BME280;3290;47.716;9.070;2023-04-04T06:23:55;97443.63;;;4.31;59.71
6514;BME280;3290;47.716;9.070;2023-04-04T06:26:21;97450.56;;;3.83;59.95
6514;BME280;3290;47.716;9.070;2023-04-04T06:28:49;97447.84;;;4.24;59.44
6514;BME280;3290;47.716;9.070;2023-04-04T06:31:15;97450.75;;;4.29;58.94
6514;BME280;3290;47.716;9.070;2023-04-04T06:33:41;97446.53;;;4.04;59.36
6514;BME280;3290;47.716;9.070;2023-04-04T06:36:06;97446.38;;;4.37;58.33
6514;BME280;3290;47.716;9.070;2023-04-04T06:38:32;97440.66;;;4.73;58.24
6514;BME280;3290;47.716;9.070;2023-04-04T06:40:58;97441.28;;;4.67;56.93
6514;BME280;3290;47.716;9.070;2023-04-04T06:43:23;97438.38;;;5.16;56.68
6514;BME280;3290;47.716;9.070;2023-04-04T06:45:49;97442.72;;;5.31;56.39
6514;BME280;3290;47.716;9.070;2023-04-04T06:48:14;97441.59;;;5.56;54.97
6514;BME280;3290;47.716;9.070;2023-04-04T06:50:40;97439.16;;;5.62;55.34
6514;BME280;3290;47.716;9.070;2023-04-04T06:53:06;97441.09;;;5.91;54.53
6514;BME280;3290;47.716;9.070;2023-04-04T06:55:32;97437.00;;;5.66;53.58
6514;BME280;3290;47.716;9.070;2023-04-04T06:57:58;97440.50;;;5.81;53.22
6514;BME280;3290;47.716;9.070;2023-04-04T07:00:23;97432.44;;;5.76;53.46
6514;BME280;3290;47.716;9.070;2023-04-04T07:02:49;97438.13;;;5.71;53.47
6514;BME280;3290;47.716;9.070;2023-04-04T07:05:14;97435.69;;;5.70;53.35
6514;BME280;3290;47.716;9.070;2023-04-04T07:07:43;97439.31;;;6.13;52.37
6514;BME280;3290;47.716;9.070;2023-04-04T07:10:08;97438.47;;;5.98;52.42
6514;BME280;3290;47.716;9.070;2023-04-04T07:12:34;97435.56;;;5.94;51.76
6514;BME280;3290;47.716;9.070;2023-04-04T07:14:59;97446.41;;;6.56;52.37
6514;BME280;3290;47.716;9.070;2023-04-04T07:17:25;97437.97;;;6.39;51.38
6514;BME280;3290;47.716;9.070;2023-04-04T07:19:50;97436.13;;;6.26;51.19
6514;BME280;3290;47.716;9.070;2023-04-04T07:22:15;97439.94;;;6.38;50.61
6514;BME280;3290;47.716;9.070;2023-04-04T07:24:41;97446.19;;;6.06;51.58
6514;BME280;3290;47.716;9.070;2023-04-04T07:27:06;97445.16;;;6.15;50.14
6514;BME280;3290;47.716;9.070;2023-04-04T07:29:32;97443.34;;;6.52;49.61
6514;BME280;3290;47.716;9.070;2023-04-04T07:31:57;97434.13;;;6.50;49.29
6514;BME280;3290;47.716;9.070;2023-04-04T07:34:22;97430.56;;;7.08;48.88
6514;BME280;3290;47.716;9.070;2023-04-04T07:36:50;97428.97;;;7.07;49.51
6514;BME280;3290;47.716;9.070;2023-04-04T07:39:15;97425.06;;;7.46;48.27
6514;BME280;3290;47.716;9.070;2023-04-04T07:41:41;97438.22;;;6.81;48.84
6514;BME280;3290;47.716;9.070;2023-04-04T07:44:06;97420.50;;;6.91;47.37
6514;BME280;3290;47.716;9.070;2023-04-04T07:46:32;97432.56;;;6.78;47.42
6514;BME280;3290;47.716;9.070;2023-04-04T07:48:57;97428.50;;;7.18;48.08
6514;BME280;3290;47.716;9.070;2023-04-04T07:51:23;97426.25;;;7.15;46.61
6514;BME280;3290;47.716;9.070;2023-04-04T07:53:54;97428.69;;;7.17;45.74
6514;BME280;3290;47.716;9.070;2023-04-04T07:56:19;97424.28;;;7.17;45.71
6514;BME280;3290;47.716;9.070;2023-04-04T07:58:46;97427.69;;;7.32;45.80
6514;BME280;3290;47.716;9.070;2023-04-04T08:01:11;97425.16;;;7.53;45.60
6514;BME280;3290;47.716;9.070;2023-04-04T08:03:36;97419.25;;;7.30;44.66
6514;BME280;3290;47.716;9.070;2023-04-04T08:06:02;97422.56;;;7.24;45.17
6514;BME280;3290;47.716;9.070;2023-04-04T08:08:27;97424.53;;;7.71;44.42
6514;BME280;3290;47.716;9.070;2023-04-04T08:10:53;97421.47;;;7.47;45.48
6514;BME280;3290;47.716;9.070;2023-04-04T08:13:19;97418.41;;;7.29;45.07
6514;BME280;3290;47.716;9.070;2023-04-04T08:15:45;97424.38;;;7.94;44.59
6514;BME280;3290;47.716;9.070;2023-04-04T08:18:10;97412.56;;;7.42;43.67
6514;BME280;3290;47.716;9.070;2023-04-04T08:20:35;97408.16;;;7.77;42.97
6514;BME280;3290;47.716;9.070;2023-04-04T08:23:01;97408.66;;;8.08;43.84
6514;BME280;3290;47.716;9.070;2023-04-04T08:25:26;97402.69;;;8.35;42.23
6514;BME280;3290;47.716;9.070;2023-04-04T08:27:53;97409.81;;;8.20;42.87
6514;BME280;3290;47.716;9.070;2023-04-04T08:30:18;97406.63;;;9.06;41.51
6514;BME280;3290;47.716;9.070;2023-04-04T08:32:44;97405.13;;;8.36;42.00
6514;BME280;3290;47.716;9.070;2023-04-04T08:35:10;97410.94;;;8.59;42.14
6514;BME280;3290;47.716;9.070;2023-04-04T08:37:36;97408.75;;;8.62;41.63
6514;BME280;3290;47.716;9.070;2023-04-04T08:40:03;97406.13;;;8.89;40.99
6514;BME280;3290;47.716;9.070;2023-04-04T08:42:31;97401.75;;;9.43;40.25
6514;BME280;3290;47.716;9.070;2023-04-04T08:45:00;97407.41;;;9.46;39.19
6514;BME280;3290;47.716;9.070;2023-04-04T08:47:30;97409.44;;;9.57;40.11
6514;BME280;3290;47.716;9.070;2023-04-04T08:49:58;97412.78;;;9.32;40.36
6514;BME280;3290;47.716;9.070;2023-04-04T08:52:26;97412.13;;;9.70;39.92
6514;BME280;3290;47.716;9.070;2023-04-04T08:54:52;97407.09;;;9.16;39.83
6514;BME280;3290;47.716;9.070;2023-04-04T08:57:19;97410.22;;;9.45;39.29
6514;BME280;3290;47.716;9.070;2023-04-04T08:59:45;97412.25;;;9.49;40.11
6514;BME280;3290;47.716;9.070;2023-04-04T09:02:22;97418.13;;;10.49;38.15
6514;BME280;3290;47.716;9.070;2023-04-04T09:04:48;97420.47;;;9.93;38.99
6514;BME280;3290;47.716;9.070;2023-04-04T09:07:14;97425.47;;;9.35;40.38
6514;BME280;3290;47.716;9.070;2023-04-04T09:09:43;97414.00;;;9.89;39.38
6514;BME280;3290;47.716;9.070;2023-04-04T09:12:12;97424.13;;;10.11;37.77
6514;BME280;3290;47.716;9.070;2023-04-04T09:14:38;97415.13;;;10.52;38.51
6514;BME280;3290;47.716;9.070;2023-04-04T09:17:05;97414.28;;;10.51;38.36
6514;BME280;3290;47.716;9.070;2023-04-04T09:19:32;97405.41;;;10.46;37.24
6514;BME280;3290;47.716;9.070;2023-04-04T09:21:58;97405.94;;;9.90;37.54
6514;BME280;3290;47.716;9.070;2023-04-04T09:24:23;97403.59;;;10.34;38.20
6514;BME280;3290;47.716;9.070;2023-04-04T09:26:51;97412.28;;;10.66;38.21
6514;BME280;3290;47.716;9.070;2023-04-04T09:29:20;97401.41;;;10.31;36.73
6514;BME280;3290;47.716;9.070;2023-04-04T09:31:49;97405.63;;;10.64;36.94
6514;BME280;3290;47.716;9.070;2023-04-04T09:34:16;97405.00;;;10.10;37.45
6514;BME280;3290;47.716;9.070;2023-04-04T09:36:43;97405.78;;;10.94;36.77
6514;BME280;3290;47.716;9.070;2023-04-04T09:39:09;97406.03;;;11.56;35.70
6514;BME280;3290;47.716;9.070;2023-04-04T09:41:38;97399.50;;;12.08;35.68
6514;BME280;3290;47.716;9.070;2023-04-04T09:44:04;97407.72;;;11.81;35.58
6514;BME280;3290;47.716;9.070;2023-04-04T09:46:32;97393.56;;;12.49;35.40
6514;BME280;3290;47.716;9.070;2023-04-04T09:48:59;97406.03;;;10.80;36.20
6514;BME280;3290;47.716;9.070;2023-04-04T09:51:33;97398.19;;;11.43;35.02
6514;BME280;3290;47.716;9.070;2023-04-04T09:54:00;97400.53;;;11.63;35.09
6514;BME280;3290;47.716;9.070;2023-04-04T09:56:26;97405.69;;;11.39;35.24
6514;BME280;3290;47.716;9.070;2023-04-04T09:58:52;97401.88;;;11.22;36.10
6514;BME280;3290;47.716;9.070;2023-04-04T10:01:18;97398.19;;;11.43;34.08
6514;BME280;3290;47.716;9.070;2023-04-04T10:03:50;97399.16;;;10.73;34.82
6514;BME280;3290;47.716;9.070;2023-04-04T10:06:16;97395.56;;;10.54;34.68
6514;BME280;3290;47.716;9.070;2023-04-04T10:08:42;97403.00;;;10.77;34.92
6514;BME280;3290;47.716;9.070;2023-04-04T10:11:08;97396.63;;;11.29;34.28
6514;BME280;3290;47.716;9.070;2023-04-04T10:13:35;97390.47;;;11.60;34.17
6514;BME280;3290;47.716;9.070;2023-04-04T10:16:02;97392.78;;;12.42;32.55
6514;BME280;3290;47.716;9.070;2023-04-04T10:18:29;97395.66;;;11.73;32.87
6514;BME280;3290;47.716;9.070;2023-04-04T10:20:58;97392.34;;;11.47;33.07
6514;BME280;3290;47.716;9.070;2023-04-04T10:23:24;97399.81;;;12.48;33.19
6514;BME280;3290;47.716;9.070;2023-04-04T10:25:54;97403.25;;;11.88;33.64
6514;BME280;3290;47.716;9.070;2023-04-04T10:28:20;97404.41;;;11.98;33.36
6514;BME280;3290;47.716;9.070;2023-04-04T10:36:02;97396.59;;;12.16;33.80
6514;BME280;3290;47.716;9.070;2023-04-04T10:38:39;97396.28;;;12.61;33.34
6514;BME280;3290;47.716;9.070;2023-04-04T10:41:06;97406.69;;;11.32;34.02
6514;BME280;3290;47.716;9.070;2023-04-04T10:43:34;97397.00;;;11.45;33.64
6514;BME280;3290;47.716;9.070;2023-04-04T10:46:17;97386.16;;;12.09;34.15
6514;BME280;3290;47.716;9.070;2023-04-04T10:48:47;97392.50;;;11.96;33.59
6514;BME280;3290;47.716;9.070;2023-04-04T10:51:13;97393.34;;;11.90;34.25
6514;BME280;3290;47.716;9.070;2023-04-04T10:53:40;97382.75;;;12.33;33.71
6514;BME280;3290;47.716;9.070;2023-04-04T10:56:06;97385.16;;;12.35;32.86
6514;BME280;3290;47.716;9.070;2023-04-04T10:58:38;97387.78;;;11.73;34.18
6514;BME280;3290;47.716;9.070;2023-04-04T11:01:06;97383.41;;;11.98;32.53
6514;BME280;3290;47.716;9.070;2023-04-04T11:03:31;97384.75;;;11.76;32.88
6514;BME280;3290;47.716;9.070;2023-04-04T11:05:58;97381.16;;;12.01;32.34
6514;BME280;3290;47.716;9.070;2023-04-04T11:08:27;97378.31;;;13.00;32.24
6514;BME280;3290;47.716;9.070;2023-04-04T11:10:53;97383.25;;;12.72;32.38
6514;BME280;3290;47.716;9.070;2023-04-04T11:13:26;97383.66;;;12.21;33.20
6514;BME280;3290;47.716;9.070;2023-04-04T11:20:56;97386.94;;;12.16;33.90
6514;BME280;3290;47.716;9.070;2023-04-04T11:23:21;97373.44;;;13.03;32.55
6514;BME280;3290;47.716;9.070;2023-04-04T11:25:54;97376.00;;;13.45;31.82
6514;BME280;3290;47.716;9.070;2023-04-04T11:31:24;97378.91;;;13.02;33.08
6514;BME280;3290;47.716;9.070;2023-04-04T11:41:51;97376.56;;;12.94;31.73
6514;BME280;3290;47.716;9.070;2023-04-04T11:44:17;97381.97;;;12.81;32.46
6514;BME280;3290;47.716;9.070;2023-04-04T11:46:43;97376.47;;;11.23;33.18
6514;BME280;3290;47.716;9.070;2023-04-04T11:49:10;97387.09;;;11.47;33.20
6514;BME280;3290;47.716;9.070;2023-04-04T11:51:37;97385.03;;;11.99;32.68
6514;BME280;3290;47.716;9.070;2023-04-04T11:54:03;97371.09;;;12.71;33.75
6514;BME280;3290;47.716;9.070;2023-04-04T11:56:35;97365.06;;;13.13;31.57
6514;BME280;3290;47.716;9.070;2023-04-04T11:59:02;97371.84;;;12.30;31.41
6514;BME280;3290;47.716;9.070;2023-04-04T12:01:30;97364.88;;;12.41;31.58
6514;BME280;3290;47.716;9.070;2023-04-04T12:03:58;97367.06;;;12.27;32.10
6514;BME280;3290;47.716;9.070;2023-04-04T12:06:24;97360.41;;;12.18;32.35
6514;BME280;3290;47.716;9.070;2023-04-04T12:08:51;97358.25;;;12.15;33.52
6514;BME280;3290;47.716;9.070;2023-04-04T12:11:16;97350.81;;;12.78;32.56
6514;BME280;3290;47.716;9.070;2023-04-04T12:13:43;97355.53;;;13.29;31.76
6514;BME280;3290;47.716;9.070;2023-04-04T12:16:12;97366.50;;;12.42;32.47
6514;BME280;3290;47.716;9.070;2023-04-04T12:18:38;97361.75;;;12.75;32.75
6514;BME280;3290;47.716;9.070;2023-04-04T12:21:05;97349.53;;;12.87;32.52
6514;BME280;3290;47.716;9.070;2023-04-04T12:23:34;97351.91;;;12.71;32.58
6514;BME280;3290;47.716;9.070;2023-04-04T12:26:00;97363.00;;;12.24;31.83
6514;BME280;3290;47.716;9.070;2023-04-04T12:28:29;97363.38;;;12.28;32.51
6514;BME280;3290;47.716;9.070;2023-04-04T12:30:57;97355.75;;;12.68;31.75
6514;BME280;3290;47.716;9.070;2023-04-04T12:33:29;97355.16;;;13.08;31.97
6514;BME280;3290;47.716;9.070;2023-04-04T12:35:58;97361.81;;;13.46;31.29
6514;BME280;3290;47.716;9.070;2023-04-04T12:38:24;97357.47;;;12.80;30.89
6514;BME280;3290;47.716;9.070;2023-04-04T12:40:51;97360.22;;;12.68;32.46
6514;BME280;3290;47.716;9.070;2023-04-04T12:43:16;97351.81;;;13.01;31.93
6514;BME280;3290;47.716;9.070;2023-04-04T12:45:43;97352.41;;;12.79;32.14
6514;BME280;3290;47.716;9.070;2023-04-04T12:48:12;97352.34;;;12.43;31.25
6514;BME280;3290;47.716;9.070;2023-04-04T12:50:53;97344.66;;;12.66;30.39
6514;BME280;3290;47.716;9.070;2023-04-04T12:53:28;97353.19;;;12.13;31.23
6514;BME280;3290;47.716;9.070;2023-04-04T12:55:58;97358.25;;;12.15;31.08
6514;BME280;3290;47.716;9.070;2023-04-04T12:58:24;97354.00;;;12.38;31.23
6514;BME280;3290;47.716;9.070;2023-04-04T13:00:52;97357.06;;;12.11;31.05
6514;BME280;3290;47.716;9.070;2023-04-04T13:03:19;97352.16;;;12.87;30.97
6514;BME280;3290;47.716;9.070;2023-04-04T13:05:47;97351.59;;;13.03;31.85
6514;BME280;3290;47.716;9.070;2023-04-04T13:08:13;97345.41;;;12.73;32.24
6514;BME280;3290;47.716;9.070;2023-04-04T13:13:40;97348.41;;;12.77;32.20
6514;BME280;3290;47.716;9.070;2023-04-04T13:18:36;97356.03;;;12.84;31.81
6514;BME280;3290;47.716;9.070;2023-04-04T13:21:03;97344.47;;;12.43;31.80
6514;BME280;3290;47.716;9.070;2023-04-04T13:23:28;97352.34;;;12.43;32.15
6514;BME280;3290;47.716;9.070;2023-04-04T13:25:54;97348.25;;;12.47;32.83
6514;BME280;3290;47.716;9.070;2023-04-04T13:28:20;97343.66;;;12.43;33.29
6514;BME280;3290;47.716;9.070;2023-04-04T13:30:46;97342.97;;;11.25;32.68
6514;BME280;3290;47.716;9.070;2023-04-04T13:33:13;97341.06;;;12.37;32.56
6514;BME280;3290;47.716;9.070;2023-04-04T13:35:41;97336.53;;;12.26;31.93
6514;BME280;3290;47.716;9.070;2023-04-04T13:38:07;97332.88;;;12.93;32.73
6514;BME280;3290;47.716;9.070;2023-04-04T13:40:33;97334.91;;;12.49;32.04
6514;BME280;3290;47.716;9.070;2023-04-04T13:42:58;97324.66;;;12.65;33.52
6514;BME280;3290;47.716;9.070;2023-04-04T13:45:24;97325.47;;;12.41;33.17
6514;BME280;3290;47.716;9.070;2023-04-04T13:47:49;97325.00;;;12.27;34.21
6514;BME280;3290;47.716;9.070;2023-04-04T13:50:14;97326.09;;;12.79;33.42
6514;BME280;3290;47.716;9.070;2023-04-04T13:52:40;97332.00;;;12.57;34.50
6514;BME280;3290;47.716;9.070;2023-04-04T13:55:06;97323.41;;;12.68;32.02
6514;BME280;3290;47.716;9.070;2023-04-04T13:57:32;97339.84;;;11.84;32.07